sensor_id;sensor_type;location;lat;lon;timestamp;P1;durP1;ratioP1;P2;durP2;ratioP2
56136;SDS011;42008;52.934;5.884;2023-09-08T00:01:33;11.43;;;9.70;;
56136;SDS011;42008;52.934;5.884;2023-09-08T00:03:58;17.63;;;10.00;;
56136;SDS011;42008;52.934;5.884;2023-09-08T00:06:24;12.33;;;9.97;;
56136;SDS011;42008;52.934;5.884;2023-09-08T00:08:50;16.53;;;10.03;;
56136;SDS011;42008;52.934;5.884;2023-09-08T00:11:15;12.43;;;9.83;;
56136;SDS011;42008;52.934;5.884;2023-09-08T00:13:41;13.10;;;9.33;;
56136;SDS011;42008;52.934;5.884;2023-09-08T00:16:06;11.97;;;9.97;;
56136;SDS011;42008;52.934;5.884;2023-09-08T00:18:35;13.57;;;10.33;;
56136;SDS011;42008;52.934;5.884;2023-09-08T00:21:00;11.47;;;10.27;;
56136;SDS011;42008;52.934;5.884;2023-09-08T00:23:26;12.27;;;10.67;;
56136;SDS011;42008;52.934;5.884;2023-09-08T00:25:53;11.40;;;9.37;;
56136;SDS011;42008;52.934;5.884;2023-09-08T00:28:19;13.10;;;9.43;;
56136;SDS011;42008;52.934;5.884;2023-09-08T00:30:44;13.47;;;10.50;;
56136;SDS011;42008;52.934;5.884;2023-09-08T00:33:10;16.57;;;10.77;;
56136;SDS011;42008;52.934;5.884;2023-09-08T00:35:37;11.50;;;10.10;;
56136;SDS011;42008;52.934;5.884;2023-09-08T00:38:03;14.23;;;10.17;;
56136;SDS011;42008;52.934;5.884;2023-09-08T00:40:29;11.33;;;10.00;;
56136;SDS011;42008;52.934;5.884;2023-09-08T00:42:54;12.53;;;10.30;;
56136;SDS011;42008;52.934;5.884;2023-09-08T00:45:20;19.60;;;10.67;;
56136;SDS011;42008;52.934;5.884;2023-09-08T00:47:46;12.60;;;10.60;;
56136;SDS011;42008;52.934;5.884;2023-09-08T00:50:11;13.73;;;11.40;;
56136;SDS011;42008;52.934;5.884;2023-09-08T00:52:37;15.33;;;10.63;;
56136;SDS011;42008;52.934;5.884;2023-09-08T00:55:03;13.20;;;10.13;;
56136;SDS011;42008;52.934;5.884;2023-09-08T00:57:29;13.20;;;11.33;;
56136;SDS011;42008;52.934;5.884;2023-09-08T00:59:55;13.90;;;11.40;;
56136;SDS011;42008;52.934;5.884;2023-09-08T01:02:21;14.00;;;10.80;;
56136;SDS011;42008;52.934;5.884;2023-09-08T01:04:47;15.60;;;12.10;;
56136;SDS011;42008;52.934;5.884;2023-09-08T01:07:13;14.70;;;11.40;;
56136;SDS011;42008;52.934;5.884;2023-09-08T01:09:40;18.17;;;11.20;;
56136;SDS011;42008;52.934;5.884;2023-09-08T01:12:06;13.73;;;11.50;;
56136;SDS011;42008;52.934;5.884;2023-09-08T01:14:32;15.87;;;12.73;;
56136;SDS011;42008;52.934;5.884;2023-09-08T01:16:58;13.27;;;11.07;;
56136;SDS011;42008;52.934;5.884;2023-09-08T01:19:23;14.20;;;11.17;;
56136;SDS011;42008;52.934;5.884;2023-09-08T01:21:58;13.23;;;11.43;;
56136;SDS011;42008;52.934;5.884;2023-09-08T01:24:32;16.43;;;12.17;;
56136;SDS011;42008;52.934;5.884;2023-09-08T01:27:20;12.13;;;9.73;;
56136;SDS011;42008;52.934;5.884;2023-09-08T01:29:49;11.13;;;9.93;;
56136;SDS011;42008;52.934;5.884;2023-09-08T01:32:16;16.77;;;11.30;;
56136;SDS011;42008;52.934;5.884;2023-09-08T01:34:42;13.80;;;11.23;;
56136;SDS011;42008;52.934;5.884;2023-09-08T01:37:08;12.07;;;10.73;;
56136;SDS011;42008;52.934;5.884;2023-09-08T01:39:33;13.57;;;12.17;;
56136;SDS011;42008;52.934;5.884;2023-09-08T01:41:59;14.43;;;11.07;;
56136;SDS011;42008;52.934;5.884;2023-09-08T01:44:24;13.80;;;11.63;;
56136;SDS011;42008;52.934;5.884;2023-09-08T01:46:50;12.67;;;10.30;;
56136;SDS011;42008;52.934;5.884;2023-09-08T01:49:21;12.45;;;11.02;;
56136;SDS011;42008;52.934;5.884;2023-09-08T01:51:47;18.80;;;11.07;;
56136;SDS011;42008;52.934;5.884;2023-09-08T01:54:13;15.83;;;11.20;;
56136;SDS011;42008;52.934;5.884;2023-09-08T01:56:38;13.43;;;10.77;;
56136;SDS011;42008;52.934;5.884;2023-09-08T01:59:04;16.37;;;11.50;;
56136;SDS011;42008;52.934;5.884;2023-09-08T02:01:29;12.97;;;10.70;;
56136;SDS011;42008;52.934;5.884;2023-09-08T02:03:55;15.70;;;11.20;;
56136;SDS011;42008;52.934;5.884;2023-09-08T02:06:20;12.83;;;10.37;;
56136;SDS011;42008;52.934;5.884;2023-09-08T02:08:46;13.70;;;10.80;;
56136;SDS011;42008;52.934;5.884;2023-09-08T02:11:12;12.17;;;9.97;;
56136;SDS011;42008;52.934;5.884;2023-09-08T02:13:38;13.07;;;9.73;;
56136;SDS011;42008;52.934;5.884;2023-09-08T02:16:06;11.30;;;10.10;;
56136;SDS011;42008;52.934;5.884;2023-09-08T02:18:32;13.70;;;10.27;;
56136;SDS011;42008;52.934;5.884;2023-09-08T02:20:57;13.47;;;9.57;;
56136;SDS011;42008;52.934;5.884;2023-09-08T02:23:23;13.50;;;11.80;;
56136;SDS011;42008;52.934;5.884;2023-09-08T02:25:49;12.93;;;10.73;;
56136;SDS011;42008;52.934;5.884;2023-09-08T02:28:14;12.80;;;11.13;;
56136;SDS011;42008;52.934;5.884;2023-09-08T02:30:40;12.47;;;11.07;;
56136;SDS011;42008;52.934;5.884;2023-09-08T02:33:05;12.83;;;11.50;;
56136;SDS011;42008;52.934;5.884;2023-09-08T02:35:35;15.03;;;10.63;;
56136;SDS011;42008;52.934;5.884;2023-09-08T02:38:03;13.37;;;11.30;;
56136;SDS011;42008;52.934;5.884;2023-09-08T02:40:29;13.87;;;12.47;;
56136;SDS011;42008;52.934;5.884;2023-09-08T02:42:54;13.73;;;12.33;;
56136;SDS011;42008;52.934;5.884;2023-09-08T02:45:20;13.40;;;11.70;;
56136;SDS011;42008;52.934;5.884;2023-09-08T02:47:45;16.83;;;13.73;;
56136;SDS011;42008;52.934;5.884;2023-09-08T02:50:11;16.87;;;13.90;;
56136;SDS011;42008;52.934;5.884;2023-09-08T02:52:36;12.90;;;11.33;;
56136;SDS011;42008;52.934;5.884;2023-09-08T02:55:02;16.37;;;11.93;;
56136;SDS011;42008;52.934;5.884;2023-09-08T02:57:28;12.50;;;11.20;;
56136;SDS011;42008;52.934;5.884;2023-09-08T02:59:53;14.57;;;12.47;;
56136;SDS011;42008;52.934;5.884;2023-09-08T03:02:21;15.87;;;13.13;;
56136;SDS011;42008;52.934;5.884;2023-09-08T03:04:48;13.90;;;12.40;;
56136;SDS011;42008;52.934;5.884;2023-09-08T03:07:14;16.90;;;14.13;;
56136;SDS011;42008;52.934;5.884;2023-09-08T03:09:39;23.10;;;14.50;;
56136;SDS011;42008;52.934;5.884;2023-09-08T03:12:05;18.00;;;14.03;;
56136;SDS011;42008;52.934;5.884;2023-09-08T03:14:30;14.83;;;12.70;;
56136;SDS011;42008;52.934;5.884;2023-09-08T03:16:56;14.23;;;12.73;;
56136;SDS011;42008;52.934;5.884;2023-09-08T03:19:21;15.17;;;12.57;;
56136;SDS011;42008;52.934;5.884;2023-09-08T03:21:47;15.13;;;13.27;;
56136;SDS011;42008;52.934;5.884;2023-09-08T03:24:12;15.43;;;12.60;;
56136;SDS011;42008;52.934;5.884;2023-09-08T03:26:38;14.77;;;12.90;;
56136;SDS011;42008;52.934;5.884;2023-09-08T03:29:05;15.63;;;12.80;;
56136;SDS011;42008;52.934;5.884;2023-09-08T03:31:31;16.73;;;14.60;;
56136;SDS011;42008;52.934;5.884;2023-09-08T03:33:56;16.57;;;14.87;;
56136;SDS011;42008;52.934;5.884;2023-09-08T03:36:22;15.90;;;14.20;;
56136;SDS011;42008;52.934;5.884;2023-09-08T03:38:48;17.23;;;14.50;;
56136;SDS011;42008;52.934;5.884;2023-09-08T03:41:14;19.17;;;15.73;;
56136;SDS011;42008;52.934;5.884;2023-09-08T03:43:39;18.77;;;15.03;;
56136;SDS011;42008;52.934;5.884;2023-09-08T03:46:05;20.50;;;15.93;;
56136;SDS011;42008;52.934;5.884;2023-09-08T03:48:30;18.93;;;15.80;;
56136;SDS011;42008;52.934;5.884;2023-09-08T03:50:56;19.40;;;15.37;;
56136;SDS011;42008;52.934;5.884;2023-09-08T03:53:22;18.33;;;16.00;;
56136;SDS011;42008;52.934;5.884;2023-09-08T03:55:47;19.00;;;16.63;;
56136;SDS011;42008;52.934;5.884;2023-09-08T03:58:13;19.87;;;15.73;;
56136;SDS011;42008;52.934;5.884;2023-09-08T04:00:38;21.20;;;16.37;;
56136;SDS011;42008;52.934;5.884;2023-09-08T04:03:04;19.33;;;15.60;;
56136;SDS011;42008;52.934;5.884;2023-09-08T04:05:30;18.73;;;16.20;;
56136;SDS011;42008;52.934;5.884;2023-09-08T04:07:55;18.33;;;16.23;;
56136;SDS011;42008;52.934;5.884;2023-09-08T04:10:21;17.97;;;15.93;;
56136;SDS011;42008;52.934;5.884;2023-09-08T04:12:46;19.20;;;17.00;;
56136;SDS011;42008;52.934;5.884;2023-09-08T04:15:12;22.33;;;16.47;;
56136;SDS011;42008;52.934;5.884;2023-09-08T04:17:37;19.10;;;16.13;;
56136;SDS011;42008;52.934;5.884;2023-09-08T04:20:04;17.87;;;15.97;;
56136;SDS011;42008;52.934;5.884;2023-09-08T04:22:30;20.77;;;16.77;;
56136;SDS011;42008;52.934;5.884;2023-09-08T04:24:56;21.47;;;16.13;;
56136;SDS011;42008;52.934;5.884;2023-09-08T04:27:22;20.43;;;15.47;;
56136;SDS011;42008;52.934;5.884;2023-09-08T04:29:48;20.83;;;15.57;;
56136;SDS011;42008;52.934;5.884;2023-09-08T04:32:14;22.37;;;15.17;;
56136;SDS011;42008;52.934;5.884;2023-09-08T04:34:40;19.60;;;16.80;;
56136;SDS011;42008;52.934;5.884;2023-09-08T04:37:07;20.17;;;15.83;;
56136;SDS011;42008;52.934;5.884;2023-09-08T04:39:33;23.00;;;16.37;;
56136;SDS011;42008;52.934;5.884;2023-09-08T04:41:59;27.77;;;17.10;;
56136;SDS011;42008;52.934;5.884;2023-09-08T04:44:25;20.50;;;17.27;;
56136;SDS011;42008;52.934;5.884;2023-09-08T04:46:51;20.83;;;16.83;;
56136;SDS011;42008;52.934;5.884;2023-09-08T04:49:17;20.00;;;17.57;;
56136;SDS011;42008;52.934;5.884;2023-09-08T04:51:43;28.47;;;17.10;;
56136;SDS011;42008;52.934;5.884;2023-09-08T04:54:09;20.43;;;17.27;;
56136;SDS011;42008;52.934;5.884;2023-09-08T04:56:34;19.80;;;16.40;;
56136;SDS011;42008;52.934;5.884;2023-09-08T04:59:00;19.33;;;17.17;;
56136;SDS011;42008;52.934;5.884;2023-09-08T05:01:26;23.10;;;17.30;;
56136;SDS011;42008;52.934;5.884;2023-09-08T05:03:52;24.27;;;18.13;;
56136;SDS011;42008;52.934;5.884;2023-09-08T05:06:18;24.20;;;17.10;;
56136;SDS011;42008;52.934;5.884;2023-09-08T05:08:43;20.43;;;17.43;;
56136;SDS011;42008;52.934;5.884;2023-09-08T05:11:09;19.90;;;17.37;;
56136;SDS011;42008;52.934;5.884;2023-09-08T05:13:35;21.53;;;17.70;;
56136;SDS011;42008;52.934;5.884;2023-09-08T05:16:01;22.33;;;16.87;;
56136;SDS011;42008;52.934;5.884;2023-09-08T05:18:36;22.97;;;17.63;;
56136;SDS011;42008;52.934;5.884;2023-09-08T05:21:05;28.80;;;17.33;;
56136;SDS011;42008;52.934;5.884;2023-09-08T05:23:31;28.40;;;16.97;;
56136;SDS011;42008;52.934;5.884;2023-09-08T05:25:57;21.53;;;17.10;;
56136;SDS011;42008;52.934;5.884;2023-09-08T05:28:22;24.37;;;17.33;;
56136;SDS011;42008;52.934;5.884;2023-09-08T05:30:50;21.33;;;17.57;;
56136;SDS011;42008;52.934;5.884;2023-09-08T05:33:16;18.80;;;16.20;;
56136;SDS011;42008;52.934;5.884;2023-09-08T05:35:42;22.23;;;16.50;;
56136;SDS011;42008;52.934;5.884;2023-09-08T05:38:08;20.77;;;16.40;;
56136;SDS011;42008;52.934;5.884;2023-09-08T05:40:34;21.70;;;16.30;;
56136;SDS011;42008;52.934;5.884;2023-09-08T05:43:00;20.80;;;16.63;;
56136;SDS011;42008;52.934;5.884;2023-09-08T05:45:25;24.33;;;17.50;;
56136;SDS011;42008;52.934;5.884;2023-09-08T05:47:51;18.33;;;16.07;;
56136;SDS011;42008;52.934;5.884;2023-09-08T05:50:17;18.03;;;16.23;;
56136;SDS011;42008;52.934;5.884;2023-09-08T05:52:43;23.27;;;16.03;;
56136;SDS011;42008;52.934;5.884;2023-09-08T05:55:08;18.80;;;16.73;;
56136;SDS011;42008;52.934;5.884;2023-09-08T05:57:34;18.30;;;16.23;;
56136;SDS011;42008;52.934;5.884;2023-09-08T06:00:02;19.07;;;15.70;;
56136;SDS011;42008;52.934;5.884;2023-09-08T06:02:28;25.90;;;16.83;;
56136;SDS011;42008;52.934;5.884;2023-09-08T06:04:53;18.80;;;15.60;;
56136;SDS011;42008;52.934;5.884;2023-09-08T06:07:19;20.40;;;14.80;;
56136;SDS011;42008;52.934;5.884;2023-09-08T06:09:44;20.50;;;15.57;;
56136;SDS011;42008;52.934;5.884;2023-09-08T06:12:10;18.87;;;15.37;;
56136;SDS011;42008;52.934;5.884;2023-09-08T06:14:35;22.77;;;16.90;;
56136;SDS011;42008;52.934;5.884;2023-09-08T06:17:01;22.23;;;15.70;;
56136;SDS011;42008;52.934;5.884;2023-09-08T06:19:27;20.90;;;15.50;;
56136;SDS011;42008;52.934;5.884;2023-09-08T06:21:52;18.07;;;15.83;;
56136;SDS011;42008;52.934;5.884;2023-09-08T06:24:18;18.80;;;15.17;;
56136;SDS011;42008;52.934;5.884;2023-09-08T06:26:44;23.77;;;14.50;;
56136;SDS011;42008;52.934;5.884;2023-09-08T06:29:10;18.47;;;15.63;;
56136;SDS011;42008;52.934;5.884;2023-09-08T06:31:35;19.27;;;16.30;;
56136;SDS011;42008;52.934;5.884;2023-09-08T06:34:01;18.30;;;15.60;;
56136;SDS011;42008;52.934;5.884;2023-09-08T06:36:26;17.20;;;14.80;;
56136;SDS011;42008;52.934;5.884;2023-09-08T06:38:52;16.30;;;14.67;;
56136;SDS011;42008;52.934;5.884;2023-09-08T06:41:17;18.30;;;15.23;;
56136;SDS011;42008;52.934;5.884;2023-09-08T06:43:43;15.87;;;14.13;;
56136;SDS011;42008;52.934;5.884;2023-09-08T06:46:10;16.53;;;14.27;;
56136;SDS011;42008;52.934;5.884;2023-09-08T06:48:35;18.90;;;15.50;;
56136;SDS011;42008;52.934;5.884;2023-09-08T06:51:01;17.13;;;14.67;;
56136;SDS011;42008;52.934;5.884;2023-09-08T06:53:26;22.07;;;13.70;;
56136;SDS011;42008;52.934;5.884;2023-09-08T06:55:52;19.07;;;13.93;;
56136;SDS011;42008;52.934;5.884;2023-09-08T06:58:17;17.03;;;14.20;;
56136;SDS011;42008;52.934;5.884;2023-09-08T07:00:43;17.13;;;13.57;;
56136;SDS011;42008;52.934;5.884;2023-09-08T07:03:09;22.40;;;13.97;;
56136;SDS011;42008;52.934;5.884;2023-09-08T07:05:34;17.93;;;14.43;;
56136;SDS011;42008;52.934;5.884;2023-09-08T07:08:00;14.70;;;13.20;;
56136;SDS011;42008;52.934;5.884;2023-09-08T07:10:26;16.40;;;13.93;;
56136;SDS011;42008;52.934;5.884;2023-09-08T07:12:51;19.00;;;13.03;;
56136;SDS011;42008;52.934;5.884;2023-09-08T07:15:17;20.63;;;13.13;;
56136;SDS011;42008;52.934;5.884;2023-09-08T07:17:42;16.07;;;13.03;;
56136;SDS011;42008;52.934;5.884;2023-09-08T07:20:08;23.70;;;13.77;;
56136;SDS011;42008;52.934;5.884;2023-09-08T07:22:34;14.10;;;12.30;;
56136;SDS011;42008;52.934;5.884;2023-09-08T07:25:00;15.43;;;12.40;;
56136;SDS011;42008;52.934;5.884;2023-09-08T07:27:25;13.30;;;11.90;;
56136;SDS011;42008;52.934;5.884;2023-09-08T07:29:51;14.80;;;12.33;;
56136;SDS011;42008;52.934;5.884;2023-09-08T07:32:16;16.17;;;12.33;;
56136;SDS011;42008;52.934;5.884;2023-09-08T07:34:43;17.73;;;12.73;;
56136;SDS011;42008;52.934;5.884;2023-09-08T07:37:08;17.90;;;11.90;;
56136;SDS011;42008;52.934;5.884;2023-09-08T07:39:34;15.37;;;12.53;;
56136;SDS011;42008;52.934;5.884;2023-09-08T07:42:00;19.20;;;12.27;;
56136;SDS011;42008;52.934;5.884;2023-09-08T07:44:26;17.27;;;11.73;;
56136;SDS011;42008;52.934;5.884;2023-09-08T07:46:52;16.17;;;12.10;;
56136;SDS011;42008;52.934;5.884;2023-09-08T07:49:20;17.63;;;13.70;;
56136;SDS011;42008;52.934;5.884;2023-09-08T07:51:45;17.33;;;13.75;;
56136;SDS011;42008;52.934;5.884;2023-09-08T07:54:11;17.75;;;13.77;;
56136;SDS011;42008;52.934;5.884;2023-09-08T07:56:37;19.57;;;13.63;;
56136;SDS011;42008;52.934;5.884;2023-09-08T07:59:02;21.30;;;14.73;;
56136;SDS011;42008;52.934;5.884;2023-09-08T08:01:28;21.27;;;13.73;;
56136;SDS011;42008;52.934;5.884;2023-09-08T08:03:54;26.75;;;15.27;;
56136;SDS011;42008;52.934;5.884;2023-09-08T08:06:19;20.48;;;15.38;;
56136;SDS011;42008;52.934;5.884;2023-09-08T08:08:45;19.13;;;15.07;;
56136;SDS011;42008;52.934;5.884;2023-09-08T08:11:15;26.65;;;17.10;;
56136;SDS011;42008;52.934;5.884;2023-09-08T08:13:42;21.48;;;15.85;;
56136;SDS011;42008;52.934;5.884;2023-09-08T08:16:08;18.88;;;15.05;;
56136;SDS011;42008;52.934;5.884;2023-09-08T08:18:34;22.88;;;14.90;;
56136;SDS011;42008;52.934;5.884;2023-09-08T08:20:59;23.42;;;14.75;;
56136;SDS011;42008;52.934;5.884;2023-09-08T08:23:27;18.83;;;14.52;;
56136;SDS011;42008;52.934;5.884;2023-09-08T08:25:53;19.48;;;14.15;;
56136;SDS011;42008;52.934;5.884;2023-09-08T08:28:18;17.55;;;13.05;;
56136;SDS011;42008;52.934;5.884;2023-09-08T08:30:44;22.10;;;14.63;;
56136;SDS011;42008;52.934;5.884;2023-09-08T08:33:15;18.50;;;13.35;;
56136;SDS011;42008;52.934;5.884;2023-09-08T08:35:40;21.38;;;14.32;;
56136;SDS011;42008;52.934;5.884;2023-09-08T08:38:06;16.00;;;12.85;;
56136;SDS011;42008;52.934;5.884;2023-09-08T10:24:23;13.77;;;8.13;;
56136;SDS011;42008;52.934;5.884;2023-09-08T10:26:51;9.38;;;7.22;;
56136;SDS011;42008;52.934;5.884;2023-09-08T10:29:25;12.00;;;7.38;;
56136;SDS011;42008;52.934;5.884;2023-09-08T10:31:52;9.07;;;7.40;;
56136;SDS011;42008;52.934;5.884;2023-09-08T10:34:18;9.70;;;7.25;;
56136;SDS011;42008;52.934;5.884;2023-09-08T10:36:45;11.52;;;6.72;;
56136;SDS011;42008;52.934;5.884;2023-09-08T10:44:43;12.30;;;6.97;;
56136;SDS011;42008;52.934;5.884;2023-09-08T10:47:09;10.00;;;6.60;;
56136;SDS011;42008;52.934;5.884;2023-09-08T10:49:35;12.05;;;6.65;;
56136;SDS011;42008;52.934;5.884;2023-09-08T10:52:08;18.27;;;7.15;;
56136;SDS011;42008;52.934;5.884;2023-09-08T10:54:41;12.27;;;6.03;;
56136;SDS011;42008;52.934;5.884;2023-09-08T10:57:12;11.43;;;6.22;;
56136;SDS011;42008;52.934;5.884;2023-09-08T10:59:40;14.00;;;6.07;;
56136;SDS011;42008;52.934;5.884;2023-09-08T11:04:55;7.07;;;5.45;;
56136;SDS011;42008;52.934;5.884;2023-09-08T11:07:20;9.93;;;5.50;;
56136;SDS011;42008;52.934;5.884;2023-09-08T11:09:46;8.63;;;5.95;;
56136;SDS011;42008;52.934;5.884;2023-09-08T11:12:11;10.40;;;5.60;;
56136;SDS011;42008;52.934;5.884;2023-09-08T11:14:37;12.63;;;5.80;;
56136;SDS011;42008;52.934;5.884;2023-09-08T11:17:03;8.73;;;4.90;;
56136;SDS011;42008;52.934;5.884;2023-09-08T11:19:47;8.02;;;5.20;;
56136;SDS011;42008;52.934;5.884;2023-09-08T11:22:14;7.57;;;5.07;;
56136;SDS011;42008;52.934;5.884;2023-09-08T11:24:41;9.75;;;5.35;;
56136;SDS011;42008;52.934;5.884;2023-09-08T11:27:07;7.95;;;5.05;;
56136;SDS011;42008;52.934;5.884;2023-09-08T11:29:34;8.07;;;5.38;;
56136;SDS011;42008;52.934;5.884;2023-09-08T11:31:59;6.55;;;5.38;;
56136;SDS011;42008;52.934;5.884;2023-09-08T11:34:25;9.52;;;4.88;;
56136;SDS011;42008;52.934;5.884;2023-09-08T11:36:50;10.65;;;4.90;;
56136;SDS011;42008;52.934;5.884;2023-09-08T11:39:17;5.80;;;4.90;;
56136;SDS011;42008;52.934;5.884;2023-09-08T11:41:43;10.13;;;4.63;;
56136;SDS011;42008;52.934;5.884;2023-09-08T11:44:09;7.22;;;4.43;;
56136;SDS011;42008;52.934;5.884;2023-09-08T11:46:39;6.53;;;4.90;;
56136;SDS011;42008;52.934;5.884;2023-09-08T11:49:05;8.75;;;4.78;;
56136;SDS011;42008;52.934;5.884;2023-09-08T11:51:31;6.60;;;4.40;;
56136;SDS011;42008;52.934;5.884;2023-09-08T11:53:56;8.35;;;4.95;;
56136;SDS011;42008;52.934;5.884;2023-09-08T11:56:22;12.65;;;4.47;;
56136;SDS011;42008;52.934;5.884;2023-09-08T11:58:47;7.82;;;4.38;;
56136;SDS011;42008;52.934;5.884;2023-09-08T12:01:13;6.40;;;4.82;;
56136;SDS011;42008;52.934;5.884;2023-09-08T12:03:54;7.13;;;5.28;;
56136;SDS011;42008;52.934;5.884;2023-09-08T12:06:24;8.55;;;4.65;;
56136;SDS011;42008;52.934;5.884;2023-09-08T12:08:51;8.30;;;4.28;;
56136;SDS011;42008;52.934;5.884;2023-09-08T12:11:16;6.63;;;4.60;;
56136;SDS011;42008;52.934;5.884;2023-09-08T12:13:42;7.22;;;4.57;;
56136;SDS011;42008;52.934;5.884;2023-09-08T12:16:17;7.40;;;4.63;;
56136;SDS011;42008;52.934;5.884;2023-09-08T12:18:44;10.20;;;4.78;;
56136;SDS011;42008;52.934;5.884;2023-09-08T12:21:10;6.72;;;4.75;;
56136;SDS011;42008;52.934;5.884;2023-09-08T12:23:46;7.53;;;4.80;;
56136;SDS011;42008;52.934;5.884;2023-09-08T12:26:15;11.10;;;4.50;;
56136;SDS011;42008;52.934;5.884;2023-09-08T12:28:41;8.27;;;4.50;;
56136;SDS011;42008;52.934;5.884;2023-09-08T12:31:08;6.35;;;4.35;;
56136;SDS011;42008;52.934;5.884;2023-09-08T12:33:34;5.72;;;4.10;;
56136;SDS011;42008;52.934;5.884;2023-09-08T12:36:09;7.95;;;4.38;;
56136;SDS011;42008;52.934;5.884;2023-09-08T12:38:36;7.38;;;4.75;;
56136;SDS011;42008;52.934;5.884;2023-09-08T12:41:02;7.95;;;4.60;;
56136;SDS011;42008;52.934;5.884;2023-09-08T12:43:28;14.60;;;4.50;;
56136;SDS011;42008;52.934;5.884;2023-09-08T12:45:54;7.40;;;4.28;;
56136;SDS011;42008;52.934;5.884;2023-09-08T12:48:19;6.93;;;4.68;;
56136;SDS011;42008;52.934;5.884;2023-09-08T12:50:46;8.77;;;4.70;;
56136;SDS011;42008;52.934;5.884;2023-09-08T12:53:13;7.15;;;4.45;;
56136;SDS011;42008;52.934;5.884;2023-09-08T12:55:38;8.85;;;4.03;;
56136;SDS011;42008;52.934;5.884;2023-09-08T12:58:04;6.40;;;4.43;;
56136;SDS011;42008;52.934;5.884;2023-09-08T13:00:29;8.05;;;4.32;;
56136;SDS011;42008;52.934;5.884;2023-09-08T13:02:55;9.20;;;4.25;;
56136;SDS011;42008;52.934;5.884;2023-09-08T13:05:20;7.35;;;4.45;;
56136;SDS011;42008;52.934;5.884;2023-09-08T13:07:46;5.47;;;4.03;;
56136;SDS011;42008;52.934;5.884;2023-09-08T13:10:11;7.55;;;4.38;;
56136;SDS011;42008;52.934;5.884;2023-09-08T13:12:37;10.75;;;4.40;;
56136;SDS011;42008;52.934;5.884;2023-09-08T13:15:03;8.45;;;4.50;;
56136;SDS011;42008;52.934;5.884;2023-09-08T13:17:29;9.50;;;4.95;;
56136;SDS011;42008;52.934;5.884;2023-09-08T13:19:54;11.10;;;4.30;;
56136;SDS011;42008;52.934;5.884;2023-09-08T13:22:20;9.77;;;4.90;;
56136;SDS011;42008;52.934;5.884;2023-09-08T13:24:45;5.57;;;4.55;;
56136;SDS011;42008;52.934;5.884;2023-09-08T13:27:11;7.78;;;4.03;;
56136;SDS011;42008;52.934;5.884;2023-09-08T13:29:36;7.40;;;4.25;;
56136;SDS011;42008;52.934;5.884;2023-09-08T13:32:03;6.68;;;3.80;;
56136;SDS011;42008;52.934;5.884;2023-09-08T13:34:29;10.40;;;4.40;;
56136;SDS011;42008;52.934;5.884;2023-09-08T13:36:55;7.88;;;4.45;;
56136;SDS011;42008;52.934;5.884;2023-09-08T13:39:20;6.28;;;4.40;;
56136;SDS011;42008;52.934;5.884;2023-09-08T13:41:50;10.35;;;4.50;;
56136;SDS011;42008;52.934;5.884;2023-09-08T13:44:20;8.07;;;4.00;;
56136;SDS011;42008;52.934;5.884;2023-09-08T13:46:47;9.27;;;4.30;;
56136;SDS011;42008;52.934;5.884;2023-09-08T13:49:16;6.45;;;4.40;;
56136;SDS011;42008;52.934;5.884;2023-09-08T13:51:42;6.13;;;4.00;;
56136;SDS011;42008;52.934;5.884;2023-09-08T13:54:09;8.00;;;4.22;;
56136;SDS011;42008;52.934;5.884;2023-09-08T13:56:35;7.22;;;4.20;;
56136;SDS011;42008;52.934;5.884;2023-09-08T13:59:03;8.88;;;4.07;;
56136;SDS011;42008;52.934;5.884;2023-09-08T14:01:28;11.63;;;4.28;;
56136;SDS011;42008;52.934;5.884;2023-09-08T14:03:57;9.32;;;4.13;;
56136;SDS011;42008;52.934;5.884;2023-09-08T14:06:23;7.65;;;4.13;;
56136;SDS011;42008;52.934;5.884;2023-09-08T14:08:51;7.60;;;4.32;;
56136;SDS011;42008;52.934;5.884;2023-09-08T14:11:17;7.05;;;3.72;;
56136;SDS011;42008;52.934;5.884;2023-09-08T14:13:43;8.35;;;4.00;;
56136;SDS011;42008;52.934;5.884;2023-09-08T14:16:08;8.82;;;3.58;;
56136;SDS011;42008;52.934;5.884;2023-09-08T14:18:34;12.88;;;4.32;;
56136;SDS011;42008;52.934;5.884;2023-09-08T14:21:00;6.40;;;3.70;;
56136;SDS011;42008;52.934;5.884;2023-09-08T14:23:26;8.27;;;4.28;;
56136;SDS011;42008;52.934;5.884;2023-09-08T14:25:51;9.05;;;3.85;;
56136;SDS011;42008;52.934;5.884;2023-09-08T14:28:17;5.35;;;3.67;;
56136;SDS011;42008;52.934;5.884;2023-09-08T14:30:43;7.68;;;3.83;;
56136;SDS011;42008;52.934;5.884;2023-09-08T14:33:09;6.50;;;3.88;;
56136;SDS011;42008;52.934;5.884;2023-09-08T14:35:35;7.97;;;3.53;;
56136;SDS011;42008;52.934;5.884;2023-09-08T14:38:00;5.43;;;3.38;;
56136;SDS011;42008;52.934;5.884;2023-09-08T14:40:26;6.03;;;3.67;;
56136;SDS011;42008;52.934;5.884;2023-09-08T14:42:51;6.47;;;3.63;;
56136;SDS011;42008;52.934;5.884;2023-09-08T14:45:17;7.75;;;3.70;;
56136;SDS011;42008;52.934;5.884;2023-09-08T14:47:43;7.45;;;3.80;;
56136;SDS011;42008;52.934;5.884;2023-09-08T14:50:08;9.65;;;3.83;;
56136;SDS011;42008;52.934;5.884;2023-09-08T14:52:34;7.57;;;3.30;;
56136;SDS011;42008;52.934;5.884;2023-09-08T14:55:00;8.05;;;3.60;;
56136;SDS011;42008;52.934;5.884;2023-09-08T14:57:25;5.85;;;3.95;;
56136;SDS011;42008;52.934;5.884;2023-09-08T14:59:51;7.15;;;3.58;;
56136;SDS011;42008;52.934;5.884;2023-09-08T15:02:20;5.95;;;3.78;;
56136;SDS011;42008;52.934;5.884;2023-09-08T15:04:46;8.13;;;3.30;;
56136;SDS011;42008;52.934;5.884;2023-09-08T15:07:11;7.55;;;3.80;;
56136;SDS011;42008;52.934;5.884;2023-09-08T15:09:37;6.38;;;3.75;;
56136;SDS011;42008;52.934;5.884;2023-09-08T15:12:02;6.50;;;3.65;;
56136;SDS011;42008;52.934;5.884;2023-09-08T15:14:28;6.97;;;3.50;;
56136;SDS011;42008;52.934;5.884;2023-09-08T15:16:54;5.38;;;3.60;;
56136;SDS011;42008;52.934;5.884;2023-09-08T15:19:19;6.78;;;3.40;;
56136;SDS011;42008;52.934;5.884;2023-09-08T15:21:45;6.40;;;3.78;;
56136;SDS011;42008;52.934;5.884;2023-09-08T15:24:10;5.82;;;3.50;;
56136;SDS011;42008;52.934;5.884;2023-09-08T15:26:36;7.38;;;3.58;;
56136;SDS011;42008;52.934;5.884;2023-09-08T15:29:02;6.85;;;3.53;;
56136;SDS011;42008;52.934;5.884;2023-09-08T15:31:29;9.95;;;3.60;;
56136;SDS011;42008;52.934;5.884;2023-09-08T15:33:54;5.90;;;3.33;;
56136;SDS011;42008;52.934;5.884;2023-09-08T15:36:20;6.80;;;3.30;;
56136;SDS011;42008;52.934;5.884;2023-09-08T15:38:45;4.47;;;3.38;;
56136;SDS011;42008;52.934;5.884;2023-09-08T15:41:14;7.60;;;3.55;;
56136;SDS011;42008;52.934;5.884;2023-09-08T15:43:43;8.90;;;4.00;;
56136;SDS011;42008;52.934;5.884;2023-09-08T15:46:13;12.20;;;3.33;;
56136;SDS011;42008;52.934;5.884;2023-09-08T15:48:39;6.38;;;3.38;;
56136;SDS011;42008;52.934;5.884;2023-09-08T15:51:06;8.32;;;3.50;;
56136;SDS011;42008;52.934;5.884;2023-09-08T15:53:33;13.27;;;3.65;;
56136;SDS011;42008;52.934;5.884;2023-09-08T15:55:59;6.35;;;3.20;;
56136;SDS011;42008;52.934;5.884;2023-09-08T15:58:24;5.35;;;3.47;;
56136;SDS011;42008;52.934;5.884;2023-09-08T16:00:50;9.85;;;3.50;;
56136;SDS011;42008;52.934;5.884;2023-09-08T16:03:15;7.50;;;3.50;;
56136;SDS011;42008;52.934;5.884;2023-09-08T16:05:41;7.18;;;3.80;;
56136;SDS011;42008;52.934;5.884;2023-09-08T16:08:07;5.85;;;3.50;;
56136;SDS011;42008;52.934;5.884;2023-09-08T16:10:32;6.55;;;3.25;;
56136;SDS011;42008;52.934;5.884;2023-09-08T16:12:59;9.50;;;3.95;;
56136;SDS011;42008;52.934;5.884;2023-09-08T16:15:25;8.70;;;3.80;;
56136;SDS011;42008;52.934;5.884;2023-09-08T16:17:52;6.88;;;3.95;;